createdAt,value
2018-11-26T00:00:15.243Z,7.80
2018-11-26T00:02:43.902Z,7.50
2018-11-26T00:05:12.346Z,8.43
2018-11-26T00:07:40.850Z,7.30
2018-11-26T00:10:20.651Z,7.73
2018-11-26T00:12:49.135Z,7.93
2018-11-26T00:15:17.740Z,7.53
2018-11-26T00:17:46.394Z,8.70
2018-11-26T00:20:15.043Z,8.23
2018-11-26T00:22:43.509Z,8.10
2018-11-26T00:25:12.034Z,7.87
2018-11-26T00:27:40.678Z,8.03
2018-11-26T00:30:09.147Z,8.50
2018-11-26T00:32:37.722Z,8.03
2018-11-26T00:35:06.424Z,7.87
2018-11-26T00:37:35.050Z,8.70
2018-11-26T00:40:03.650Z,7.70
2018-11-26T00:42:32.133Z,7.73
2018-11-26T00:45:00.613Z,8.53
2018-11-26T00:47:29.342Z,8.57
2018-11-26T00:49:57.874Z,7.93
2018-11-26T00:52:26.505Z,8.10
2018-11-26T00:54:54.963Z,8.20
2018-11-26T00:57:23.446Z,8.40
2018-11-26T00:59:51.916Z,8.90
2018-11-26T01:02:20.355Z,7.97
2018-11-26T01:04:49.258Z,9.03
2018-11-26T01:07:17.880Z,8.17
2018-11-26T01:09:46.310Z,8.33
2018-11-26T01:12:14.775Z,8.47
2018-11-26T01:14:43.417Z,8.47
2018-11-26T01:17:11.907Z,8.90
2018-11-26T01:19:40.565Z,8.30
2018-11-26T01:22:09.359Z,8.00
2018-11-26T01:24:38.126Z,9.07
2018-11-26T01:27:06.731Z,8.80
2018-11-26T01:29:35.178Z,9.10
2018-11-26T01:32:03.611Z,9.00
2018-11-26T01:34:32.235Z,8.07
2018-11-26T01:37:00.670Z,8.27
2018-11-26T01:39:29.421Z,8.53
2018-11-26T01:41:58.120Z,8.57
2018-11-26T01:44:26.736Z,8.17
2018-11-26T01:46:55.221Z,8.53
2018-11-26T01:49:23.837Z,8.17
2018-11-26T01:51:52.302Z,9.07
2018-11-26T01:54:21.002Z,8.77
2018-11-26T01:56:50.492Z,9.10
2018-11-26T01:59:19.022Z,8.30
2018-11-26T02:01:47.694Z,8.70
2018-11-26T02:04:16.266Z,9.07
2018-11-26T02:06:44.919Z,9.20
2018-11-26T02:09:13.410Z,8.47
2018-11-26T02:11:41.929Z,8.63
2018-11-26T02:14:10.379Z,9.00
2018-11-26T02:16:38.898Z,8.43
2018-11-26T02:19:07.404Z,8.70
2018-11-26T02:21:36.024Z,8.10
2018-11-26T02:24:04.482Z,8.60
2018-11-26T02:26:32.955Z,8.07
2018-11-26T02:29:01.528Z,8.27
2018-11-26T02:31:30.050Z,8.17
2018-11-26T02:33:58.741Z,8.30
2018-11-26T02:36:27.166Z,8.57
2018-11-26T02:38:55.604Z,8.23
2018-11-26T02:41:24.215Z,8.17
2018-11-26T02:43:52.689Z,8.63
2018-11-26T02:46:21.292Z,8.33
2018-11-26T02:48:49.863Z,9.17
2018-11-26T02:51:18.492Z,8.63
2018-11-26T02:53:46.987Z,8.40
2018-11-26T02:56:15.509Z,8.27
2018-11-26T02:58:44.166Z,8.57
2018-11-26T03:01:12.773Z,8.23
2018-11-26T03:03:42.789Z,8.40
2018-11-26T03:06:11.467Z,8.47
2018-11-26T03:08:40.086Z,8.63
2018-11-26T03:11:09.110Z,7.50
2018-11-26T03:13:37.613Z,7.70
2018-11-26T03:16:06.753Z,8.27
2018-11-26T03:18:35.411Z,7.93
2018-11-26T03:21:04.189Z,7.93
2018-11-26T03:23:32.674Z,7.80
2018-11-26T03:26:01.262Z,8.33
2018-11-26T03:28:30.006Z,8.20
2018-11-26T03:30:58.658Z,8.40
2018-11-26T03:33:27.325Z,8.03
2018-11-26T03:35:56.106Z,8.27
2018-11-26T03:38:39.633Z,7.63
2018-11-26T03:41:08.211Z,8.10
2018-11-26T03:43:36.918Z,7.80
2018-11-26T03:46:05.756Z,8.27
2018-11-26T03:48:34.312Z,7.13
2018-11-26T03:51:02.970Z,8.40
2018-11-26T03:53:31.632Z,8.00
2018-11-26T03:56:00.271Z,8.00
2018-11-26T03:58:28.941Z,7.70
2018-11-26T04:00:57.619Z,8.10
2018-11-26T04:03:26.262Z,7.30
2018-11-26T04:05:54.758Z,7.10
2018-11-26T04:08:23.300Z,7.37
2018-11-26T04:10:51.898Z,7.77
2018-11-26T04:13:20.544Z,8.30
2018-11-26T04:15:49.091Z,7.77
2018-11-26T04:18:17.729Z,8.07
2018-11-26T04:20:46.185Z,7.73
2018-11-26T04:23:14.765Z,7.43
2018-11-26T04:25:43.406Z,7.47
2018-11-26T04:28:11.889Z,7.63
2018-11-26T04:30:40.439Z,7.90
2018-11-26T04:33:09.084Z,7.93
2018-11-26T04:35:37.596Z,7.37
2018-11-26T04:38:06.262Z,8.03
2018-11-26T04:40:34.968Z,7.70
2018-11-26T04:43:03.415Z,8.10
2018-11-26T04:45:31.894Z,7.83
2018-11-26T04:48:00.346Z,8.17
2018-11-26T04:50:29.029Z,7.40
2018-11-26T04:52:58.919Z,7.93
2018-11-26T04:55:28.752Z,7.67
2018-11-26T04:57:57.352Z,8.23
2018-11-26T05:00:25.884Z,8.03
2018-11-26T05:02:54.507Z,7.50
2018-11-26T05:05:22.990Z,8.50
2018-11-26T05:07:51.522Z,7.40
2018-11-26T05:10:20.148Z,7.77
2018-11-26T05:12:48.869Z,8.07
2018-11-26T05:15:17.409Z,7.33
2018-11-26T05:17:46.026Z,7.70
2018-11-26T05:20:16.069Z,7.60
2018-11-26T05:22:45.078Z,8.13
2018-11-26T05:25:13.698Z,8.00
2018-11-26T05:27:42.191Z,7.43
2018-11-26T05:30:12.343Z,7.20
2018-11-26T05:32:42.135Z,7.67
2018-11-26T05:35:11.509Z,7.57
2018-11-26T05:37:40.133Z,7.83
2018-11-26T05:40:12.653Z,7.80
2018-11-26T05:42:41.716Z,7.30
2018-11-26T05:45:11.919Z,7.70
2018-11-26T05:47:40.623Z,7.80
2018-11-26T05:50:11.075Z,7.53
2018-11-26T05:52:40.791Z,7.13
2018-11-26T05:55:17.138Z,7.90
2018-11-26T05:57:46.744Z,7.90
2018-11-26T06:00:26.182Z,7.37
2018-11-26T06:02:55.038Z,8.03
2018-11-26T06:05:23.537Z,6.87
2018-11-26T06:07:52.431Z,7.33
2018-11-26T06:10:21.109Z,7.87
2018-11-26T06:12:49.848Z,8.03
2018-11-26T06:15:18.686Z,7.20
2018-11-26T06:17:47.245Z,7.67
2018-11-26T06:20:16.018Z,7.00
2018-11-26T06:22:48.002Z,7.63
2018-11-26T06:25:18.672Z,7.93
2018-11-26T06:27:47.587Z,7.93
2018-11-26T06:30:17.354Z,8.17
2018-11-26T06:32:45.880Z,8.30
2018-11-26T06:35:19.612Z,7.97
2018-11-26T06:37:48.385Z,7.77
2018-11-26T06:40:17.115Z,8.10
2018-11-26T06:42:46.799Z,7.37
2018-11-26T06:45:16.622Z,8.83
2018-11-26T06:47:45.251Z,7.13
2018-11-26T06:50:15.171Z,7.80
2018-11-26T06:52:44.370Z,8.67
2018-11-26T06:55:14.981Z,8.33
2018-11-26T06:57:44.434Z,8.37
2018-11-26T07:00:15.887Z,7.50
2018-11-26T07:02:45.394Z,8.20
2018-11-26T07:05:20.976Z,8.30
2018-11-26T07:07:49.799Z,8.10
2018-11-26T07:10:19.233Z,7.77
2018-11-26T07:12:47.885Z,8.03
2018-11-26T07:15:17.570Z,8.37
2018-11-26T07:17:46.081Z,8.27
2018-11-26T07:20:16.875Z,8.30
2018-11-26T07:22:45.631Z,8.23
2018-11-26T07:25:15.007Z,8.30
2018-11-26T07:27:44.780Z,8.00
2018-11-26T07:30:15.426Z,8.50
2018-11-26T07:32:45.151Z,7.97
2018-11-26T07:35:14.888Z,8.50
2018-11-26T07:37:43.492Z,8.07
2018-11-26T07:40:15.069Z,8.23
2018-11-26T07:42:55.028Z,8.40
2018-11-26T07:45:23.531Z,7.47
2018-11-26T07:47:52.674Z,7.83
2018-11-26T07:50:21.391Z,8.10
2018-11-26T07:52:50.015Z,8.23
2018-11-26T07:55:20.150Z,8.20
2018-11-26T07:57:48.710Z,8.50
2018-11-26T08:00:19.030Z,8.33
2018-11-26T08:02:47.970Z,8.20
2018-11-26T08:05:18.492Z,7.83
2018-11-26T08:07:47.225Z,7.87
2018-11-26T08:10:19.497Z,8.30
2018-11-26T08:12:49.001Z,8.50
2018-11-26T08:15:21.025Z,7.23
2018-11-26T08:17:49.535Z,8.17
2018-11-26T08:20:18.250Z,8.10
2018-11-26T08:22:46.780Z,7.83
2018-11-26T08:25:16.862Z,8.10
2018-11-26T08:27:46.257Z,8.80
2018-11-26T08:30:17.127Z,8.80
2018-11-26T08:32:50.073Z,7.33
2018-11-26T08:35:18.602Z,7.30
2018-11-26T08:37:52.401Z,7.70
2018-11-26T08:40:25.015Z,7.67
2018-11-26T08:42:59.654Z,8.57
2018-11-26T08:45:34.305Z,7.97
2018-11-26T08:48:06.172Z,7.80
2018-11-26T08:50:34.755Z,7.53
2018-11-26T08:53:03.540Z,8.40
2018-11-26T08:55:32.007Z,8.20
2018-11-26T08:58:01.421Z,8.27
2018-11-26T09:00:30.608Z,8.13
2018-11-26T09:03:03.059Z,8.10
2018-11-26T09:05:40.713Z,7.97
2018-11-26T09:08:09.394Z,7.90
2018-11-26T09:10:38.254Z,8.57
2018-11-26T09:13:06.816Z,8.07
2018-11-26T09:15:35.305Z,7.73
2018-11-26T09:18:04.804Z,7.80
2018-11-26T09:20:33.305Z,7.87
2018-11-26T09:23:01.929Z,8.23
2018-11-26T09:25:30.708Z,8.37
2018-11-26T09:27:59.822Z,8.47
2018-11-26T09:30:28.556Z,8.07
2018-11-26T09:32:57.084Z,8.73
2018-11-26T09:35:25.659Z,8.13
2018-11-26T09:37:54.100Z,8.03
2018-11-26T09:40:22.561Z,8.23
2018-11-26T09:42:51.067Z,8.10
2018-11-26T09:45:19.904Z,7.93
2018-11-26T09:47:48.732Z,7.93
2018-11-26T09:50:19.511Z,7.37
2018-11-26T09:52:48.539Z,7.90
2018-11-26T09:55:17.246Z,8.20
2018-11-26T09:57:45.696Z,8.47
2018-11-26T10:00:15.225Z,8.17
2018-11-26T10:02:45.184Z,7.90
2018-11-26T10:05:15.053Z,8.10
2018-11-26T10:07:43.476Z,7.87
2018-11-26T10:10:12.588Z,8.33
2018-11-26T10:12:41.646Z,8.03
2018-11-26T10:15:16.373Z,7.80
2018-11-26T10:17:44.999Z,8.67
2018-11-26T10:20:13.646Z,8.43
2018-11-26T10:22:43.346Z,8.33
2018-11-26T10:25:13.369Z,8.50
2018-11-26T10:27:41.874Z,9.07
2018-11-26T10:30:12.162Z,8.40
2018-11-26T10:32:40.910Z,8.77
2018-11-26T10:35:11.191Z,8.40
2018-11-26T10:37:39.787Z,8.70
2018-11-26T10:40:14.661Z,8.83
2018-11-26T10:42:43.183Z,9.33
2018-11-26T10:45:13.467Z,8.77
2018-11-26T10:47:42.314Z,8.60
2018-11-26T10:50:12.846Z,10.07
2018-11-26T10:52:42.944Z,9.97
2018-11-26T10:55:13.113Z,9.83
2018-11-26T10:57:41.599Z,9.60
2018-11-26T11:00:17.115Z,9.13
2018-11-26T11:02:45.954Z,10.17
2018-11-26T11:05:14.675Z,9.37
2018-11-26T11:07:43.140Z,10.13
2018-11-26T11:10:14.080Z,9.40
2018-11-26T11:12:42.482Z,9.27
2018-11-26T11:15:12.068Z,9.60
2018-11-26T11:17:40.667Z,9.37
2018-11-26T11:20:12.142Z,9.50
2018-11-26T11:22:40.642Z,9.70
2018-11-26T11:25:10.522Z,9.57
2018-11-26T11:27:39.293Z,9.73
2018-11-26T11:30:12.788Z,10.20
2018-11-26T11:32:41.600Z,10.10
2018-11-26T11:35:11.595Z,10.07
2018-11-26T11:37:40.795Z,9.93
2018-11-26T11:40:20.547Z,9.97
2018-11-26T11:42:49.699Z,9.73
2018-11-26T11:45:18.960Z,10.03
2018-11-26T11:47:47.724Z,9.93
2018-11-26T11:50:18.583Z,9.30
2018-11-26T11:52:47.317Z,9.47
2018-11-26T11:55:18.937Z,10.40
2018-11-26T11:57:47.517Z,10.17
2018-11-26T12:00:38.831Z,9.83
2018-11-26T12:03:13.835Z,9.63
2018-11-26T12:05:42.322Z,10.10
2018-11-26T12:08:10.896Z,10.07
2018-11-26T12:10:39.951Z,10.20
2018-11-26T12:13:10.332Z,10.23
2018-11-26T12:15:40.582Z,10.30
2018-11-26T12:18:10.423Z,10.30
2018-11-26T12:20:39.023Z,10.17
2018-11-26T12:23:07.542Z,10.87
2018-11-26T12:25:36.935Z,10.90
2018-11-26T12:28:05.485Z,10.20
2018-11-26T12:30:35.828Z,10.03
2018-11-26T12:33:05.249Z,11.20
2018-11-26T12:35:34.284Z,10.43
2018-11-26T12:38:02.816Z,10.57
2018-11-26T12:40:32.442Z,10.50
2018-11-26T12:43:02.447Z,9.90
2018-11-26T12:45:33.516Z,9.90
2018-11-26T12:48:02.295Z,10.17
2018-11-26T12:50:31.443Z,10.53
2018-11-26T12:52:59.928Z,9.70
2018-11-26T12:55:28.416Z,9.60
2018-11-26T12:57:57.573Z,10.50
2018-11-26T13:00:27.338Z,10.20
2018-11-26T13:02:57.521Z,10.77
2018-11-26T13:05:26.092Z,10.30
2018-11-26T13:07:54.708Z,10.40
2018-11-26T13:10:23.736Z,9.50
2018-11-26T13:12:52.675Z,9.80
2018-11-26T13:15:27.416Z,9.40
2018-11-26T13:17:56.100Z,9.63
2018-11-26T13:20:26.551Z,9.83
2018-11-26T13:22:55.887Z,10.67
2018-11-26T13:25:25.930Z,11.87
2018-11-26T13:27:57.394Z,13.97
2018-11-26T13:30:28.059Z,15.17
2018-11-26T13:33:00.795Z,15.63
2018-11-26T13:35:29.420Z,16.20
2018-11-26T13:37:58.107Z,15.43
2018-11-26T13:40:26.657Z,16.27
2018-11-26T13:42:55.219Z,15.50
2018-11-26T13:45:29.608Z,16.37
2018-11-26T13:47:58.526Z,16.60
2018-11-26T13:50:28.863Z,16.97
2018-11-26T13:52:57.564Z,16.20
2018-11-26T13:55:26.031Z,16.53
2018-11-26T13:57:54.640Z,16.37
2018-11-26T14:00:23.117Z,16.67
2018-11-26T14:02:51.724Z,15.97
2018-11-26T14:05:20.253Z,16.50
2018-11-26T14:07:49.222Z,16.33
2018-11-26T14:10:22.706Z,16.40
2018-11-26T14:12:55.940Z,16.00
2018-11-26T14:15:24.726Z,16.53
2018-11-26T14:17:53.514Z,16.20
2018-11-26T14:20:22.001Z,16.43
2018-11-26T14:22:50.472Z,16.67
2018-11-26T14:25:20.049Z,15.93
2018-11-26T14:27:48.861Z,15.60
2018-11-26T14:30:20.235Z,16.17
2018-11-26T14:32:48.796Z,15.90
2018-11-26T14:35:17.491Z,16.07
2018-11-26T14:37:47.487Z,15.70
2018-11-26T14:40:19.912Z,15.90
2018-11-26T14:42:48.415Z,15.77
2018-11-26T14:45:17.000Z,15.27
2018-11-26T14:47:45.676Z,16.33
2018-11-26T14:50:15.382Z,15.30
2018-11-26T14:52:46.084Z,14.77
2018-11-26T14:55:16.590Z,15.90
2018-11-26T14:57:45.489Z,15.57
2018-11-26T15:00:16.471Z,15.30
2018-11-26T15:02:45.135Z,15.13
2018-11-26T15:05:13.847Z,16.53
2018-11-26T15:07:42.413Z,14.47
2018-11-26T15:10:15.014Z,15.93
2018-11-26T15:12:44.115Z,15.60
2018-11-26T15:15:14.755Z,15.57
2018-11-26T15:17:43.901Z,15.83
2018-11-26T15:20:18.195Z,15.73
2018-11-26T15:22:49.197Z,14.63
2018-11-26T15:25:20.196Z,15.37
2018-11-26T15:27:48.777Z,15.93
2018-11-26T15:30:18.684Z,15.40
2018-11-26T15:32:48.708Z,15.97
2018-11-26T15:35:21.043Z,15.23
2018-11-26T15:37:49.869Z,15.40
2018-11-26T15:40:20.870Z,15.20
2018-11-26T15:42:49.992Z,15.10
2018-11-26T15:45:27.521Z,15.13
2018-11-26T15:47:59.695Z,14.63
2018-11-26T15:50:28.772Z,15.10
2018-11-26T15:52:57.447Z,14.50
2018-11-26T15:55:26.716Z,15.47
2018-11-26T15:57:57.088Z,14.27
2018-11-26T16:00:28.275Z,15.50
2018-11-26T16:02:56.779Z,15.00
2018-11-26T16:05:27.574Z,14.70
2018-11-26T16:07:57.753Z,14.40
2018-11-26T16:10:27.556Z,15.33
2018-11-26T16:12:57.448Z,14.17
2018-11-26T16:15:28.577Z,15.23
2018-11-26T16:17:59.309Z,14.80
2018-11-26T16:20:29.530Z,14.50
2018-11-26T16:22:59.359Z,13.97
2018-11-26T16:25:28.643Z,14.43
2018-11-26T16:27:57.696Z,14.13
2018-11-26T16:30:26.192Z,13.37
2018-11-26T16:32:56.007Z,14.33
2018-11-26T16:35:28.784Z,14.43
2018-11-26T16:37:59.608Z,13.37
2018-11-26T16:40:28.645Z,14.00
2018-11-26T16:42:57.794Z,14.00
2018-11-26T16:45:29.241Z,14.17
2018-11-26T16:47:58.683Z,14.27
2018-11-26T16:50:28.532Z,14.47
2018-11-26T16:52:57.311Z,12.87
2018-11-26T16:55:25.892Z,14.77
2018-11-26T16:57:54.752Z,14.37
2018-11-26T17:00:26.497Z,13.23
2018-11-26T17:02:59.063Z,13.33
2018-11-26T17:05:33.938Z,13.87
2018-11-26T17:08:02.883Z,13.10
2018-11-26T17:10:31.460Z,14.37
2018-11-26T17:13:00.571Z,13.50
2018-11-26T17:15:29.079Z,13.63
2018-11-26T17:17:57.920Z,13.87
2018-11-26T17:20:26.599Z,12.70
2018-11-26T17:22:55.214Z,13.37
2018-11-26T17:25:24.673Z,14.63
2018-11-26T17:27:53.160Z,14.80
2018-11-26T17:30:24.901Z,14.80
2018-11-26T17:32:57.715Z,17.27
2018-11-26T17:35:26.236Z,18.77
2018-11-26T17:37:55.867Z,20.37
2018-11-26T17:40:25.152Z,19.03
2018-11-26T17:42:53.979Z,20.63
2018-11-26T17:45:23.186Z,22.50
2018-11-26T17:47:55.321Z,21.17
2018-11-26T17:50:26.735Z,20.07
2018-11-26T17:52:57.674Z,22.10
2018-11-26T17:55:26.428Z,21.50
2018-11-26T17:57:55.499Z,19.47
2018-11-26T18:00:29.224Z,19.50
2018-11-26T18:02:58.135Z,19.33
2018-11-26T18:05:28.138Z,19.97
2018-11-26T18:08:07.199Z,20.07
2018-11-26T18:10:53.771Z,18.17
2018-11-26T18:13:22.415Z,18.67
2018-11-26T18:15:50.883Z,18.57
2018-11-26T18:18:20.609Z,17.53
2018-11-26T18:20:49.585Z,17.17
2018-11-26T18:23:19.999Z,17.73
2018-11-26T18:25:49.685Z,17.87
2018-11-26T18:28:21.700Z,17.80
2018-11-26T18:30:56.442Z,16.27
2018-11-26T18:33:25.083Z,16.73
2018-11-26T18:35:53.575Z,15.93
2018-11-26T18:38:23.048Z,17.07
2018-11-26T18:40:52.879Z,17.20
2018-11-26T18:43:22.424Z,16.53
2018-11-26T18:45:50.948Z,16.17
2018-11-26T18:48:19.669Z,15.20
2018-11-26T18:50:49.338Z,16.30
2018-11-26T18:53:18.434Z,16.83
2018-11-26T18:55:47.163Z,16.40
2018-11-26T18:58:15.841Z,15.73
2018-11-26T19:00:47.472Z,15.23
2018-11-26T19:03:19.549Z,15.37
2018-11-26T19:05:50.873Z,16.40
2018-11-26T19:08:19.520Z,15.77
2018-11-26T19:10:49.741Z,15.50
2018-11-26T19:13:21.116Z,15.80
2018-11-26T19:15:51.283Z,15.70
2018-11-26T19:18:26.187Z,15.53
2018-11-26T19:20:55.095Z,14.67
2018-11-26T19:23:25.184Z,15.20
2018-11-26T19:25:54.031Z,15.33
2018-11-26T19:28:23.824Z,15.37
2018-11-26T19:30:52.417Z,15.37
2018-11-26T19:33:21.171Z,15.80
2018-11-26T19:35:50.986Z,14.47
2018-11-26T19:38:19.674Z,15.03
2018-11-26T19:40:48.935Z,14.80
2018-11-26T19:43:18.810Z,14.43
2018-11-26T19:45:49.619Z,14.83
2018-11-26T19:48:18.365Z,15.00
2018-11-26T19:50:47.097Z,14.17
2018-11-26T19:53:15.671Z,14.37
2018-11-26T19:55:45.478Z,14.43
2018-11-26T19:58:14.226Z,13.63
2018-11-26T20:00:42.780Z,13.53
2018-11-26T20:03:16.253Z,14.70
2018-11-26T20:05:51.720Z,13.67
2018-11-26T20:08:21.203Z,13.47
2018-11-26T20:10:51.335Z,14.10
2018-11-26T20:13:20.831Z,14.13
2018-11-26T20:15:49.857Z,14.10
2018-11-26T20:18:18.672Z,14.33
2018-11-26T20:20:47.324Z,13.73
2018-11-26T20:23:16.318Z,13.70
2018-11-26T20:25:46.212Z,13.03
2018-11-26T20:28:14.257Z,14.17
2018-11-26T20:30:43.999Z,13.63
2018-11-26T20:33:12.587Z,13.67
2018-11-26T20:35:41.215Z,13.50
2018-11-26T20:38:11.737Z,13.20
2018-11-26T20:40:40.515Z,13.00
2018-11-26T20:43:10.486Z,13.63
2018-11-26T20:45:44.169Z,13.37
2018-11-26T20:48:12.702Z,13.20
2018-11-26T20:50:44.194Z,12.77
2018-11-26T20:53:12.704Z,13.43
2018-11-26T20:55:41.255Z,12.73
2018-11-26T20:58:09.873Z,12.80
2018-11-26T21:00:40.425Z,13.17
2018-11-26T21:03:10.974Z,12.77
2018-11-26T21:05:40.488Z,12.87
2018-11-26T21:08:09.152Z,12.47
2018-11-26T21:10:37.906Z,12.43
2018-11-26T21:13:07.046Z,13.57
2018-11-26T21:15:35.955Z,12.47
2018-11-26T21:18:08.401Z,12.40
2018-11-26T21:20:48.246Z,12.67
2018-11-26T21:23:22.550Z,12.13
2018-11-26T21:25:51.241Z,12.67
2018-11-26T21:28:21.398Z,13.00
2018-11-26T21:30:52.286Z,12.33
2018-11-26T21:33:21.089Z,12.00
2018-11-26T21:35:51.852Z,12.20
2018-11-26T21:38:24.198Z,12.20
2018-11-26T21:40:53.262Z,11.77
2018-11-26T21:43:21.756Z,10.87
2018-11-26T21:45:54.144Z,12.30
2018-11-26T21:48:22.956Z,11.53
2018-11-26T21:50:51.465Z,10.67
2018-11-26T21:53:20.097Z,11.77
2018-11-26T21:55:48.719Z,12.00
2018-11-26T21:58:17.253Z,11.50
2018-11-26T22:00:46.432Z,12.00
2018-11-26T22:03:15.314Z,11.73
2018-11-26T22:05:44.628Z,11.40
2018-11-26T22:08:13.415Z,10.57
2018-11-26T22:10:42.998Z,11.23
2018-11-26T22:13:15.605Z,11.10
2018-11-26T22:15:45.027Z,10.03
2018-11-26T22:18:13.654Z,11.63
2018-11-26T22:20:42.330Z,10.33
2018-11-26T22:23:11.162Z,10.40
2018-11-26T22:25:40.412Z,10.47
2018-11-26T22:28:10.888Z,10.30
2018-11-26T22:30:40.323Z,11.03
2018-11-26T22:33:09.198Z,10.63
2018-11-26T22:35:37.769Z,10.60
2018-11-26T22:38:07.038Z,11.23
2018-11-26T22:40:35.671Z,10.67
2018-11-26T22:43:04.648Z,10.47
2018-11-26T22:45:34.211Z,11.10
2018-11-26T22:48:09.603Z,11.23
2018-11-26T22:50:41.607Z,11.03
2018-11-26T22:53:10.517Z,10.33
2018-11-26T22:55:40.007Z,10.63
2018-11-26T22:58:10.128Z,11.13
2018-11-26T23:00:48.535Z,10.60
2018-11-26T23:03:19.051Z,10.10
2018-11-26T23:05:47.567Z,11.07
2018-11-26T23:08:16.189Z,11.27
2018-11-26T23:10:44.882Z,10.77
2018-11-26T23:13:13.559Z,10.73
2018-11-26T23:15:42.380Z,10.50
2018-11-26T23:18:10.848Z,10.57
2018-11-26T23:20:39.324Z,10.10
2018-11-26T23:23:07.892Z,10.23
2018-11-26T23:25:36.357Z,10.10
2018-11-26T23:28:04.839Z,10.00
2018-11-26T23:30:33.326Z,11.53
2018-11-26T23:33:02.971Z,10.27
2018-11-26T23:35:31.461Z,10.23
2018-11-26T23:38:00.083Z,10.93
2018-11-26T23:40:28.581Z,11.00
2018-11-26T23:42:57.115Z,10.60
2018-11-26T23:45:26.734Z,10.73
2018-11-26T23:47:55.465Z,10.50
2018-11-26T23:50:23.935Z,10.07
2018-11-26T23:52:52.429Z,10.43
2018-11-26T23:55:23.975Z,11.23
2018-11-26T23:57:52.720Z,10.37
